createdAt,value
2023-03-30T00:01:17.114Z,-3.88
2023-03-30T00:03:46.561Z,-3.91
2023-03-30T00:06:21.052Z,-3.93
2023-03-30T00:08:58.162Z,-3.97
2023-03-30T00:11:27.480Z,-3.95
2023-03-30T00:13:55.318Z,-3.95
2023-03-30T00:16:23.420Z,-3.97
2023-03-30T00:18:51.788Z,-3.98
2023-03-30T00:21:20.040Z,-4.01
2023-03-30T00:23:48.452Z,-4.02
2023-03-30T00:26:17.430Z,-4.06
2023-03-30T00:28:45.644Z,-4.10
2023-03-30T00:31:13.713Z,-4.13
2023-03-30T00:33:46.277Z,-4.12
2023-03-30T00:36:13.240Z,-4.13
2023-03-30T00:38:41.437Z,-4.15
2023-03-30T00:41:09.448Z,-4.15
2023-03-30T00:43:58.751Z,-4.16
2023-03-30T00:46:27.059Z,-4.17
2023-03-30T00:49:00.316Z,-4.18
2023-03-30T00:51:28.558Z,-4.19
2023-03-30T00:54:01.728Z,-4.23
2023-03-30T00:56:30.852Z,-4.27
2023-03-30T00:59:01.024Z,-4.30
2023-03-30T01:01:30.144Z,-4.30
2023-03-30T01:04:01.734Z,-4.32
2023-03-30T01:06:33.345Z,-4.32
2023-03-30T01:09:01.096Z,-4.33
2023-03-30T01:11:29.205Z,-4.32
2023-03-30T01:14:01.451Z,-4.32
2023-03-30T01:16:44.646Z,-4.33
2023-03-30T01:19:36.215Z,-4.36
2023-03-30T01:22:31.604Z,-4.38
2023-03-30T01:25:36.639Z,-4.41
2023-03-30T01:28:39.750Z,-4.46
2023-03-30T01:31:45.067Z,-4.50
2023-03-30T01:34:44.376Z,-4.52
2023-03-30T01:37:56.846Z,-4.52
2023-03-30T01:40:43.084Z,-4.53
2023-03-30T01:43:21.248Z,-4.54
2023-03-30T01:45:57.491Z,-4.59
2023-03-30T01:48:43.970Z,-4.61
2023-03-30T01:51:26.245Z,-4.63
2023-03-30T01:54:06.318Z,-4.65
2023-03-30T01:56:39.353Z,-4.65
2023-03-30T01:59:18.237Z,-4.64
2023-03-30T02:01:49.680Z,-4.64
2023-03-30T02:04:21.994Z,-4.61
2023-03-30T02:07:00.661Z,-4.58
2023-03-30T02:09:31.115Z,-4.58
2023-03-30T02:12:00.701Z,-4.57
2023-03-30T02:14:32.369Z,-4.58
2023-03-30T02:17:24.119Z,-4.60
2023-03-30T02:19:54.215Z,-4.60
2023-03-30T02:22:23.232Z,-4.64
2023-03-30T02:24:55.596Z,-4.70
2023-03-30T02:27:25.693Z,-4.81
2023-03-30T02:29:54.293Z,-4.86
2023-03-30T02:32:29.319Z,-4.90
2023-03-30T02:35:21.849Z,-4.94
2023-03-30T02:38:46.502Z,-4.98
2023-03-30T02:41:28.235Z,-5.04
2023-03-30T02:44:31.001Z,-5.09
2023-03-30T02:47:36.953Z,-5.11
2023-03-30T02:50:26.584Z,-5.14
2023-03-30T02:53:09.945Z,-5.17
2023-03-30T02:55:49.339Z,-5.19
2023-03-30T02:58:45.887Z,-5.19
2023-03-30T03:01:38.961Z,-5.21
2023-03-30T03:04:12.777Z,-5.21
2023-03-30T03:06:42.930Z,-5.21
2023-03-30T03:09:10.439Z,-5.22
2023-03-30T03:11:38.041Z,-5.23
2023-03-30T03:14:07.370Z,-5.23
2023-03-30T03:16:35.595Z,-5.26
2023-03-30T03:19:16.001Z,-5.24
2023-03-30T03:21:44.361Z,-5.23
2023-03-30T03:24:14.339Z,-5.22
2023-03-30T03:27:00.629Z,-5.21
2023-03-30T03:29:29.685Z,-5.21
2023-03-30T03:31:57.344Z,-5.23
2023-03-30T03:34:28.831Z,-5.24
2023-03-30T03:36:59.166Z,-5.25
2023-03-30T03:39:28.696Z,-5.25
2023-03-30T03:41:58.282Z,-5.25
2023-03-30T03:44:26.242Z,-5.26
2023-03-30T03:46:54.233Z,-5.27
2023-03-30T03:49:22.243Z,-5.26
2023-03-30T03:51:50.196Z,-5.27
2023-03-30T03:54:18.304Z,-5.30
2023-03-30T03:56:47.059Z,-5.31
2023-03-30T03:59:16.217Z,-5.34
2023-03-30T04:01:44.298Z,-5.36
2023-03-30T04:04:12.306Z,-5.35
2023-03-30T04:06:40.753Z,-5.33
2023-03-30T04:09:09.444Z,-5.31
2023-03-30T04:11:48.978Z,-5.29
2023-03-30T04:14:27.581Z,-5.30
2023-03-30T04:17:14.497Z,-5.31
2023-03-30T04:19:46.235Z,-5.32
2023-03-30T04:22:26.003Z,-5.29
2023-03-30T04:25:00.061Z,-5.30
2023-03-30T04:27:30.044Z,-5.28
2023-03-30T04:30:11.472Z,-5.28
2023-03-30T04:33:03.239Z,-4.89
2023-03-30T04:35:36.343Z,-3.94
2023-03-30T04:38:10.412Z,-2.96
2023-03-30T04:40:43.008Z,-2.09
2023-03-30T04:43:27.498Z,-1.21
2023-03-30T04:46:06.566Z,-0.38
2023-03-30T04:48:41.972Z,0.48
2023-03-30T04:51:31.603Z,1.07
2023-03-30T04:54:08.148Z,1.70
2023-03-30T04:56:35.731Z,2.45
2023-03-30T04:59:06.212Z,3.13
2023-03-30T05:01:57.880Z,3.72
2023-03-30T05:04:29.268Z,4.36
2023-03-30T05:07:15.475Z,4.93
2023-03-30T05:09:52.393Z,5.39
2023-03-30T05:12:37.169Z,5.59
2023-03-30T05:15:11.145Z,6.03
2023-03-30T05:17:41.304Z,6.45
2023-03-30T05:20:26.052Z,6.76
2023-03-30T05:22:55.813Z,7.15
2023-03-30T05:25:25.585Z,7.46
2023-03-30T05:28:01.695Z,7.67
2023-03-30T05:30:31.871Z,7.68
2023-03-30T05:33:09.213Z,7.69
2023-03-30T05:35:41.603Z,7.77
2023-03-30T05:38:17.633Z,7.73
2023-03-30T05:40:54.206Z,7.76
2023-03-30T05:43:31.478Z,7.84
2023-03-30T05:46:10.519Z,7.84
2023-03-30T05:48:38.653Z,7.67
2023-03-30T05:51:25.518Z,7.60
2023-03-30T05:54:05.088Z,7.52
2023-03-30T05:56:52.211Z,7.47
2023-03-30T05:59:21.139Z,7.20
2023-03-30T06:01:53.877Z,6.93
2023-03-30T06:04:22.365Z,6.84
2023-03-30T06:06:50.423Z,6.58
2023-03-30T06:09:19.251Z,6.25
2023-03-30T06:11:47.167Z,5.86
2023-03-30T06:14:19.566Z,5.91
2023-03-30T06:16:49.132Z,5.93
2023-03-30T06:19:17.344Z,5.95
2023-03-30T06:21:45.147Z,6.07
2023-03-30T06:24:15.269Z,6.00
2023-03-30T06:26:43.188Z,5.81
2023-03-30T06:29:11.161Z,6.04
2023-03-30T06:31:42.506Z,6.37
2023-03-30T06:34:15.166Z,6.54
2023-03-30T06:36:45.068Z,6.59
2023-03-30T06:39:14.312Z,6.59
2023-03-30T06:41:42.172Z,6.72
2023-03-30T06:44:13.750Z,6.90
2023-03-30T06:46:41.902Z,7.11
2023-03-30T06:49:11.846Z,7.28
2023-03-30T06:51:46.591Z,7.40
2023-03-30T06:54:16.455Z,7.51
2023-03-30T06:56:47.821Z,7.59
2023-03-30T06:59:17.073Z,7.77
2023-03-30T07:02:07.727Z,7.90
2023-03-30T07:04:51.484Z,7.97
2023-03-30T07:07:27.652Z,8.32
2023-03-30T07:09:55.395Z,8.69
2023-03-30T07:12:23.877Z,8.87
2023-03-30T07:14:52.404Z,8.94
2023-03-30T07:17:21.651Z,9.16
2023-03-30T07:19:49.628Z,9.14
2023-03-30T07:22:17.368Z,9.15
2023-03-30T07:24:45.435Z,9.10
2023-03-30T07:27:13.310Z,9.08
2023-03-30T07:29:41.895Z,9.24
2023-03-30T07:32:09.721Z,9.25
2023-03-30T07:34:37.524Z,9.21
2023-03-30T07:37:05.768Z,9.31
2023-03-30T07:39:34.100Z,9.49
2023-03-30T07:42:03.104Z,9.47
2023-03-30T07:44:30.997Z,9.36
2023-03-30T07:47:01.266Z,9.02
2023-03-30T07:49:29.162Z,8.86
2023-03-30T07:51:56.910Z,8.83
2023-03-30T07:54:26.696Z,8.93
2023-03-30T07:57:02.370Z,9.01
2023-03-30T07:59:30.061Z,9.14
2023-03-30T08:02:00.148Z,9.14
2023-03-30T08:04:33.150Z,9.10
2023-03-30T08:07:03.345Z,9.14
2023-03-30T08:09:31.202Z,9.01
2023-03-30T08:11:59.270Z,9.12
2023-03-30T08:14:27.451Z,9.15
2023-03-30T08:16:56.057Z,9.16
2023-03-30T08:19:25.088Z,9.06
2023-03-30T08:21:53.250Z,9.06
2023-03-30T08:24:21.124Z,9.21
2023-03-30T08:26:49.058Z,9.36
2023-03-30T08:29:18.235Z,9.38
2023-03-30T08:31:46.975Z,9.51
2023-03-30T08:34:14.755Z,9.83
2023-03-30T08:36:43.409Z,10.18
2023-03-30T08:39:11.298Z,10.42
2023-03-30T08:41:50.597Z,10.36
2023-03-30T08:44:39.125Z,10.16
2023-03-30T08:47:14.944Z,10.10
2023-03-30T08:49:57.488Z,10.18
2023-03-30T08:52:26.539Z,9.80
2023-03-30T08:54:54.588Z,9.87
2023-03-30T08:57:46.575Z,10.18
2023-03-30T09:00:27.797Z,10.41
2023-03-30T09:03:16.172Z,10.62
2023-03-30T09:05:49.043Z,10.55
2023-03-30T09:08:22.246Z,10.38
2023-03-30T09:10:57.473Z,10.22
2023-03-30T09:13:34.948Z,10.43
2023-03-30T09:16:32.814Z,10.60
2023-03-30T09:19:03.494Z,10.77
2023-03-30T09:21:32.091Z,11.02
2023-03-30T09:24:05.103Z,11.13
2023-03-30T09:27:03.962Z,11.40
2023-03-30T09:29:38.673Z,11.37
2023-03-30T09:32:13.549Z,11.25
2023-03-30T09:34:57.185Z,11.22
2023-03-30T09:37:28.541Z,11.11
2023-03-30T09:39:58.105Z,11.27
2023-03-30T09:43:13.509Z,11.41
2023-03-30T09:45:43.002Z,10.96
2023-03-30T09:48:11.196Z,10.81
2023-03-30T09:50:48.011Z,10.79
2023-03-30T09:53:26.360Z,10.61
2023-03-30T09:55:59.798Z,10.62
2023-03-30T09:58:32.049Z,10.83
2023-03-30T10:01:11.652Z,10.58
2023-03-30T10:03:43.629Z,10.39
2023-03-30T10:06:17.724Z,10.39
2023-03-30T10:08:56.287Z,10.65
2023-03-30T10:11:51.681Z,10.89
2023-03-30T10:14:35.184Z,11.06
2023-03-30T10:17:05.354Z,11.25
2023-03-30T10:19:38.014Z,11.36
2023-03-30T10:22:17.651Z,11.29
2023-03-30T10:24:54.739Z,11.29
2023-03-30T10:27:36.919Z,11.46
2023-03-30T10:30:14.640Z,11.30
2023-03-30T10:32:51.685Z,10.90
2023-03-30T10:35:39.161Z,10.88
2023-03-30T10:38:12.075Z,10.94
2023-03-30T10:40:44.302Z,10.78
2023-03-30T10:43:20.296Z,10.77
2023-03-30T10:45:54.945Z,10.67
2023-03-30T10:48:48.050Z,10.78
2023-03-30T10:51:30.306Z,10.87
2023-03-30T10:54:22.538Z,10.95
2023-03-30T10:57:17.887Z,11.06
2023-03-30T11:00:23.443Z,11.33
2023-03-30T11:03:16.186Z,11.65
2023-03-30T11:05:49.241Z,11.74
2023-03-30T11:16:07.792Z,12.13
2023-03-30T11:19:08.830Z,12.11
2023-03-30T11:21:50.228Z,11.73
2023-03-30T11:24:21.466Z,11.34
2023-03-30T11:27:14.226Z,11.04
2023-03-30T11:30:17.894Z,10.90
2023-03-30T11:33:17.715Z,11.13
2023-03-30T11:36:00.064Z,10.99
2023-03-30T11:38:46.625Z,10.84
2023-03-30T11:41:40.830Z,10.77
2023-03-30T11:44:11.381Z,10.65
2023-03-30T11:47:16.128Z,10.41
2023-03-30T11:50:14.685Z,10.20
2023-03-30T11:53:17.124Z,10.21
2023-03-30T11:56:01.762Z,10.00
2023-03-30T11:58:44.272Z,9.98
2023-03-30T12:01:44.354Z,9.79
2023-03-30T12:04:15.956Z,9.79
2023-03-30T12:07:03.200Z,9.96
2023-03-30T12:09:38.860Z,10.20
2023-03-30T12:12:17.449Z,10.50
2023-03-30T12:14:56.674Z,10.47
2023-03-30T12:17:50.888Z,10.38
2023-03-30T12:20:47.900Z,10.54
2023-03-30T12:23:30.063Z,10.73
2023-03-30T12:26:27.908Z,11.04
2023-03-30T12:31:58.695Z,11.54
2023-03-30T12:34:30.974Z,11.72
2023-03-30T12:37:26.252Z,11.79
2023-03-30T12:40:07.480Z,11.94
2023-03-30T12:42:48.683Z,11.82
2023-03-30T12:45:31.372Z,11.65
2023-03-30T12:48:10.157Z,11.45
2023-03-30T12:51:00.529Z,11.46
2023-03-30T12:53:54.376Z,11.55
2023-03-30T12:56:45.830Z,11.64
2023-03-30T12:59:31.297Z,11.81
2023-03-30T13:02:40.721Z,11.63
2023-03-30T13:05:31.933Z,11.53
2023-03-30T13:08:11.012Z,11.34
2023-03-30T13:10:41.988Z,11.21
2023-03-30T13:13:43.472Z,11.09
2023-03-30T13:16:13.994Z,11.13
2023-03-30T13:18:54.158Z,11.23
2023-03-30T13:21:25.572Z,11.29
2023-03-30T13:24:04.524Z,10.96
2023-03-30T13:26:44.462Z,10.85
2023-03-30T13:29:16.566Z,10.86
2023-03-30T13:32:14.368Z,10.92
2023-03-30T13:35:18.396Z,10.97
2023-03-30T13:38:03.800Z,11.07
2023-03-30T13:40:46.427Z,11.07
2023-03-30T13:43:40.735Z,11.20
2023-03-30T13:46:41.212Z,11.40
2023-03-30T13:49:46.442Z,11.47
2023-03-30T13:52:23.037Z,11.51
2023-03-30T13:54:51.036Z,11.51
2023-03-30T13:57:25.405Z,11.39
2023-03-30T14:00:01.593Z,11.41
2023-03-30T14:02:31.707Z,11.45
2023-03-30T14:05:13.952Z,11.42
2023-03-30T14:07:44.875Z,11.27
2023-03-30T14:10:20.394Z,11.10
2023-03-30T14:12:50.551Z,11.07
2023-03-30T14:15:24.417Z,10.95
2023-03-30T14:17:57.212Z,10.88
2023-03-30T14:20:54.752Z,10.89
2023-03-30T14:23:40.721Z,10.86
2023-03-30T14:26:27.765Z,10.92
2023-03-30T14:29:00.158Z,11.04
2023-03-30T14:31:30.383Z,11.13
2023-03-30T14:34:02.177Z,11.21
2023-03-30T14:36:30.167Z,11.27
2023-03-30T14:38:58.565Z,11.31
2023-03-30T14:41:31.148Z,11.27
2023-03-30T14:44:04.153Z,11.21
2023-03-30T14:46:42.362Z,11.09
2023-03-30T14:49:27.025Z,11.03
2023-03-30T14:52:10.527Z,11.08
2023-03-30T14:54:39.776Z,11.12
2023-03-30T14:57:08.775Z,11.06
2023-03-30T14:59:44.490Z,10.98
2023-03-30T15:02:22.664Z,10.91
2023-03-30T15:04:52.340Z,10.84
2023-03-30T15:07:20.331Z,10.80
2023-03-30T15:09:57.435Z,10.73
2023-03-30T15:12:38.948Z,10.64
2023-03-30T15:15:09.274Z,10.58
2023-03-30T15:17:44.068Z,10.49
2023-03-30T15:20:13.708Z,10.46
2023-03-30T15:22:48.537Z,10.41
2023-03-30T15:25:40.575Z,10.35
2023-03-30T15:28:19.586Z,10.29
2023-03-30T15:30:54.225Z,10.22
2023-03-30T15:33:33.496Z,10.13
2023-03-30T15:36:22.374Z,10.02
2023-03-30T15:38:58.110Z,9.98
2023-03-30T15:42:00.131Z,9.90
2023-03-30T15:44:28.351Z,9.79
2023-03-30T15:46:58.398Z,9.73
2023-03-30T15:49:43.346Z,9.70
2023-03-30T15:52:35.277Z,9.67
2023-03-30T15:55:23.228Z,9.61
2023-03-30T15:57:52.475Z,9.60
2023-03-30T16:00:27.460Z,9.55
2023-03-30T16:03:01.235Z,9.50
2023-03-30T16:05:33.255Z,9.44
2023-03-30T16:08:01.147Z,9.39
2023-03-30T16:10:32.397Z,9.36
2023-03-30T16:13:01.617Z,9.32
2023-03-30T16:15:32.978Z,9.26
2023-03-30T16:18:05.923Z,9.23
2023-03-30T16:20:43.199Z,9.18
2023-03-30T16:23:10.677Z,9.17
2023-03-30T16:25:44.650Z,9.13
2023-03-30T16:28:15.638Z,9.11
2023-03-30T16:30:46.802Z,9.08
2023-03-30T16:33:17.522Z,9.06
2023-03-30T16:35:45.701Z,9.02
2023-03-30T16:38:17.367Z,8.99
2023-03-30T16:40:51.446Z,8.96
2023-03-30T16:43:19.155Z,8.92
2023-03-30T16:45:46.955Z,8.82
2023-03-30T16:48:15.003Z,8.74
2023-03-30T16:50:46.542Z,8.64
2023-03-30T16:53:14.065Z,8.53
2023-03-30T16:55:41.772Z,8.43
2023-03-30T16:58:15.882Z,8.36
2023-03-30T17:00:50.493Z,8.31
2023-03-30T17:03:19.921Z,8.27
2023-03-30T17:05:48.826Z,8.24
2023-03-30T17:08:30.039Z,8.21
2023-03-30T17:11:01.035Z,8.21
2023-03-30T17:13:30.247Z,8.19
2023-03-30T17:16:00.295Z,8.18
2023-03-30T17:18:29.028Z,8.17
2023-03-30T17:21:01.698Z,8.16
2023-03-30T17:23:31.715Z,8.13
2023-03-30T17:26:01.687Z,8.12
2023-03-30T17:28:33.382Z,8.09
2023-03-30T17:31:03.587Z,8.05
2023-03-30T17:33:33.573Z,8.02
2023-03-30T17:36:06.520Z,7.99
2023-03-30T17:38:34.323Z,7.98
2023-03-30T17:41:06.514Z,7.95
2023-03-30T17:43:34.327Z,7.93
2023-03-30T17:46:01.891Z,7.88
2023-03-30T17:48:29.641Z,7.84
2023-03-30T17:50:57.977Z,7.79
2023-03-30T17:53:25.618Z,7.71
2023-03-30T17:55:53.546Z,7.64
2023-03-30T17:58:26.171Z,7.58
2023-03-30T18:00:54.118Z,7.53
2023-03-30T18:03:23.011Z,7.48
2023-03-30T18:05:51.738Z,7.46
2023-03-30T18:08:23.355Z,7.42
2023-03-30T18:10:56.730Z,7.40
2023-03-30T18:13:26.702Z,7.36
2023-03-30T18:15:57.930Z,7.32
2023-03-30T18:18:31.561Z,7.24
2023-03-30T18:21:02.615Z,7.18
2023-03-30T18:23:33.396Z,7.14
2023-03-30T18:26:03.486Z,7.12
2023-03-30T18:28:32.038Z,7.09
2023-03-30T18:31:02.909Z,7.06
2023-03-30T18:33:31.350Z,7.05
2023-03-30T18:36:01.650Z,7.02
2023-03-30T18:38:29.520Z,6.97
2023-03-30T18:41:04.545Z,6.88
2023-03-30T18:43:33.119Z,6.81
2023-03-30T18:46:02.553Z,6.77
2023-03-30T18:48:33.850Z,6.74
2023-03-30T18:51:01.730Z,6.74
2023-03-30T18:53:30.479Z,6.74
2023-03-30T18:56:01.175Z,6.72
2023-03-30T18:58:37.044Z,6.72
2023-03-30T19:01:06.502Z,6.69
2023-03-30T19:03:35.030Z,6.68
2023-03-30T19:06:03.178Z,6.68
2023-03-30T19:08:32.581Z,6.64
2023-03-30T19:11:00.523Z,6.59
2023-03-30T19:13:28.694Z,6.57
2023-03-30T19:15:57.561Z,6.55
2023-03-30T19:18:25.436Z,6.55
2023-03-30T19:20:55.015Z,6.53
2023-03-30T19:23:22.949Z,6.52
2023-03-30T19:25:50.999Z,6.49
2023-03-30T19:28:19.529Z,6.46
2023-03-30T19:30:48.096Z,6.45
2023-03-30T19:33:17.088Z,6.43
2023-03-30T19:35:45.874Z,6.41
2023-03-30T19:38:14.895Z,6.39
2023-03-30T19:40:45.837Z,6.37
2023-03-30T19:43:13.514Z,6.33
2023-03-30T19:45:41.190Z,6.28
2023-03-30T19:48:09.609Z,6.25
2023-03-30T19:50:39.015Z,6.24
2023-03-30T19:53:06.768Z,6.25
2023-03-30T19:55:35.302Z,6.24
2023-03-30T19:58:03.173Z,6.25
2023-03-30T20:00:32.633Z,6.26
2023-03-30T20:03:00.583Z,6.27
2023-03-30T20:05:28.437Z,6.25
2023-03-30T20:07:57.188Z,6.24
2023-03-30T20:10:25.971Z,6.23
2023-03-30T20:12:54.636Z,6.20
2023-03-30T20:15:25.027Z,6.19
2023-03-30T20:17:58.002Z,6.17
2023-03-30T20:20:25.894Z,6.16
2023-03-30T20:22:55.627Z,6.16
2023-03-30T20:25:24.094Z,6.14
2023-03-30T20:27:52.488Z,6.13
2023-03-30T20:30:20.592Z,6.12
2023-03-30T20:33:03.761Z,6.09
2023-03-30T20:35:22.334Z,6.07
2023-03-30T20:37:50.777Z,6.04
2023-03-30T20:40:20.521Z,6.02
2023-03-30T20:42:49.062Z,5.98
2023-03-30T20:45:17.136Z,5.98
2023-03-30T20:47:49.248Z,5.97
2023-03-30T20:50:17.488Z,5.96
2023-03-30T20:52:45.716Z,5.93
2023-03-30T20:55:13.784Z,5.92
2023-03-30T20:57:42.467Z,5.91
2023-03-30T21:00:12.203Z,5.89
2023-03-30T21:02:40.530Z,5.88
2023-03-30T21:05:08.874Z,5.86
2023-03-30T21:07:38.406Z,5.84
2023-03-30T21:10:07.441Z,5.83
2023-03-30T21:12:35.360Z,5.81
2023-03-30T21:15:03.535Z,5.79
2023-03-30T21:17:31.200Z,5.78
2023-03-30T21:19:58.876Z,5.76
2023-03-30T21:22:28.475Z,5.75
2023-03-30T21:24:56.206Z,5.75
2023-03-30T21:27:23.815Z,5.74
2023-03-30T21:29:51.561Z,5.75
2023-03-30T21:32:19.446Z,5.75
2023-03-30T21:34:47.275Z,5.75
2023-03-30T21:37:15.781Z,5.74
2023-03-30T21:39:43.667Z,5.74
2023-03-30T21:42:11.550Z,5.73
2023-03-30T21:44:39.314Z,5.71
2023-03-30T21:47:06.935Z,5.71
2023-03-30T21:49:36.877Z,5.70
2023-03-30T21:52:04.865Z,5.68
2023-03-30T21:54:32.575Z,5.66
2023-03-30T21:57:00.203Z,5.66
2023-03-30T21:59:28.270Z,5.65
2023-03-30T22:01:56.611Z,5.65
2023-03-30T22:04:24.225Z,5.64
2023-03-30T22:06:52.103Z,5.64
2023-03-30T22:09:19.539Z,5.62
2023-03-30T22:11:47.266Z,5.61
2023-03-30T22:14:15.158Z,5.59
2023-03-30T22:16:42.922Z,5.60
2023-03-30T22:19:10.943Z,5.58
2023-03-30T22:21:38.955Z,5.57
2023-03-30T22:24:07.792Z,5.56
2023-03-30T22:26:35.736Z,5.56
2023-03-30T22:29:04.656Z,5.53
2023-03-30T22:31:32.969Z,5.50
2023-03-30T22:34:01.232Z,5.49
2023-03-30T22:36:30.775Z,5.48
2023-03-30T22:39:00.651Z,5.47
2023-03-30T22:41:28.613Z,5.47
2023-03-30T22:43:57.867Z,5.46
2023-03-30T22:46:27.111Z,5.46
2023-03-30T22:48:55.252Z,5.43
2023-03-30T22:51:27.172Z,5.42
2023-03-30T22:53:59.357Z,5.43
2023-03-30T22:56:29.151Z,5.42
2023-03-30T22:58:59.011Z,5.42
2023-03-30T23:01:28.515Z,5.41
2023-03-30T23:03:58.382Z,5.40
2023-03-30T23:06:26.307Z,5.39
2023-03-30T23:08:54.146Z,5.37
2023-03-30T23:11:22.838Z,5.37
2023-03-30T23:13:51.926Z,5.38
2023-03-30T23:16:21.315Z,5.39
2023-03-30T23:18:52.157Z,5.38
2023-03-30T23:21:22.299Z,5.38
2023-03-30T23:23:50.528Z,5.39
2023-03-30T23:26:18.900Z,5.41
2023-03-30T23:28:46.477Z,5.43
2023-03-30T23:31:17.213Z,5.43
2023-03-30T23:33:45.673Z,5.43
2023-03-30T23:36:16.032Z,5.42
2023-03-30T23:38:43.852Z,5.41
2023-03-30T23:41:15.643Z,5.42
2023-03-30T23:43:43.572Z,5.42
2023-03-30T23:46:12.851Z,5.39
2023-03-30T23:48:41.419Z,5.37
2023-03-30T23:51:09.658Z,5.35
2023-03-30T23:53:39.349Z,5.35
2023-03-30T23:56:13.844Z,5.34
2023-03-30T23:58:41.779Z,5.31
